Time;durP1;ratioP1;P1;durP2;ratioP2;P2;SDS_P1;SDS_P2;PMS_P1;PMS_P2;Temp;Humidity;BMP_temperature;BMP_pressure;BME280_temperature;BME280_humidity;BME280_pressure;Samples;Min_cycle;Max_cycle;Signal;HPM_P1;HPM_P2
2022/10/25 00:01:36;;;;;;;6.90;1.67;;;15.10;89.10;;;;;;5095745;28;20021;-73
2022/10/25 00:04:02;;;;;;;5.40;1.88;;;15.10;89.30;;;;;;5077039;28;20031;-73
2022/10/25 00:06:27;;;;;;;4.40;1.67;;;15.10;89.50;;;;;;5078077;28;20048;-73
2022/10/25 00:08:53;;;;;;;2.53;1.50;;;15.10;89.50;;;;;;5095635;28;20056;-73
2022/10/25 00:11:22;;;;;;;7.45;1.88;;;15.10;90.10;;;;;;5078014;28;20029;-73
2022/10/25 00:13:53;;;;;;;7.55;2.10;;;15.20;89.10;;;;;;5095497;28;20027;-73
2022/10/25 00:16:22;;;;;;;6.50;1.80;;;15.10;88.90;;;;;;5095578;28;20034;-73
2022/10/25 00:18:47;;;;;;;6.75;1.90;;;15.20;88.70;;;;;;5095417;28;20470;-73
2022/10/25 00:21:13;;;;;;;6.15;1.60;;;15.10;88.50;;;;;;5095399;28;20088;-73
2022/10/25 00:23:38;;;;;;;5.95;1.90;;;15.10;88.40;;;;;;5095263;28;20052;-73
2022/10/25 00:26:06;;;;;;;4.03;1.40;;;15.10;88.60;;;;;;5095273;28;20050;-73
2022/10/25 00:28:32;;;;;;;3.90;1.30;;;15.10;88.80;;;;;;5095264;28;20048;-72
2022/10/25 00:31:03;;;;;;;4.30;1.50;;;15.20;88.70;;;;;;5095221;28;20024;-73
2022/10/25 00:33:30;;;;;;;7.93;1.60;;;15.20;88.50;;;;;;5095138;28;20033;-73
2022/10/25 00:36:01;;;;;;;7.30;1.73;;;15.20;88.50;;;;;;5095132;28;20039;-73
2022/10/25 00:38:27;;;;;;;7.75;1.90;;;15.20;88.60;;;;;;5077375;28;20046;-73
2022/10/25 00:40:52;;;;;;;11.50;2.70;;;15.20;88.70;;;;;;5077431;28;20056;-73
2022/10/25 00:43:49;;;;;;;6.55;1.70;;;15.20;88.80;;;;;;5077220;28;20150;-73
2022/10/25 00:46:20;;;;;;;4.38;1.65;;;15.30;88.70;;;;;;5064767;28;20446;-73
2022/10/25 00:48:57;;;;;;;6.43;1.95;;;15.20;88.60;;;;;;5094847;28;20055;-73
2022/10/25 00:51:29;;;;;;;8.90;1.52;;;15.20;88.60;;;;;;5077152;28;20036;-73
2022/10/25 00:53:55;;;;;;;8.02;1.63;;;15.20;88.50;;;;;;5076823;28;20106;-73
2022/10/25 00:56:26;;;;;;;6.40;1.75;;;15.20;88.60;;;;;;5077067;28;20029;-73
2022/10/25 00:58:57;;;;;;;7.35;1.50;;;15.10;88.70;;;;;;5094831;28;20031;-73
2022/10/25 01:01:23;;;;;;;5.13;1.70;;;15.10;88.80;;;;;;5076937;28;20024;-73
2022/10/25 01:03:51;;;;;;;8.13;1.60;;;15.10;88.80;;;;;;5076766;28;20072;-73
2022/10/25 01:06:38;;;;;;;4.13;1.50;;;15.10;88.80;;;;;;5094468;28;20031;-73
2022/10/25 01:09:05;;;;;;;8.95;1.75;;;15.20;88.80;;;;;;5094467;28;20085;-73
2022/10/25 01:11:31;;;;;;;4.20;1.85;;;15.20;88.70;;;;;;5094353;28;20378;-73
2022/10/25 01:13:57;;;;;;;5.15;1.58;;;15.10;88.80;;;;;;5060003;28;20025;-73
2022/10/25 01:16:43;;;;;;;6.82;1.90;;;15.10;88.90;;;;;;5076322;28;20032;-73
2022/10/25 01:19:34;;;;;;;3.25;1.80;;;15.20;88.80;;;;;;5094265;28;20029;-73
2022/10/25 01:22:05;;;;;;;9.07;1.88;;;15.20;88.60;;;;;;5094165;28;20036;-73
2022/10/25 01:24:47;;;;;;;4.57;1.50;;;15.20;88.50;;;;;;5094134;28;20021;-73
2022/10/25 01:27:40;;;;;;;6.53;1.58;;;15.20;88.40;;;;;;5076352;28;20274;-73
2022/10/25 01:30:18;;;;;;;3.70;1.73;;;15.30;88.50;;;;;;5094201;28;20051;-73
2022/10/25 01:32:50;;;;;;;5.30;1.65;;;15.30;88.40;;;;;;5093981;28;20088;-73
2022/10/25 01:35:19;;;;;;;4.07;1.52;;;15.20;88.50;;;;;;5076312;28;20016;-73
2022/10/25 01:38:11;;;;;;;8.73;1.67;;;15.30;88.50;;;;;;5076080;28;20124;-73
2022/10/25 01:40:48;;;;;;;8.48;1.50;;;15.30;88.50;;;;;;5094025;28;20024;-73
2022/10/25 01:43:22;;;;;;;3.20;1.65;;;15.30;88.30;;;;;;5093885;28;20035;-73
2022/10/25 01:46:14;;;;;;;7.72;1.63;;;15.30;88.30;;;;;;5093813;28;20021;-73
2022/10/25 01:48:45;;;;;;;6.13;1.70;;;15.40;88.90;;;;;;5093788;28;20032;-73
2022/10/25 01:51:15;;;;;;;8.27;2.20;;;15.40;88.00;;;;;;5093749;28;20024;-73
2022/10/25 01:53:49;;;;;;;6.30;1.70;;;15.40;88.20;;;;;;5093576;28;20045;-73
2022/10/25 01:56:26;;;;;;;6.13;1.42;;;15.40;88.20;;;;;;5093560;28;20087;-73
2022/10/25 01:59:26;;;;;;;6.45;1.63;;;15.30;88.30;;;;;;5093641;28;20020;-73
2022/10/25 02:02:21;;;;;;;6.40;1.50;;;15.40;88.20;;;;;;5093692;28;20070;-73
2022/10/25 02:05:01;;;;;;;8.48;1.77;;;15.40;88.00;;;;;;5075753;28;20498;-73
2022/10/25 02:07:32;;;;;;;6.30;1.77;;;15.40;88.20;;;;;;5093515;28;20016;-73
2022/10/25 02:10:22;;;;;;;5.75;1.65;;;15.40;89.00;;;;;;5093510;28;20025;-73
2022/10/25 02:13:00;;;;;;;5.32;1.38;;;15.40;88.00;;;;;;5093490;28;20028;-73
2022/10/25 02:16:05;;;;;;;8.23;1.42;;;15.40;88.00;;;;;;5093596;28;20021;-73
2022/10/25 02:18:35;;;;;;;3.10;1.65;;;15.40;87.90;;;;;;5031720;28;20061;-73
2022/10/25 02:21:02;;;;;;;3.60;1.10;;;15.40;87.90;;;;;;5083926;28;20036;-73
2022/10/25 02:23:29;;;;;;;9.13;2.00;;;15.50;87.80;;;;;;5058862;28;20037;-73
2022/10/25 02:25:55;;;;;;;3.95;1.23;;;15.40;88.00;;;;;;5092846;28;20031;-73
2022/10/25 02:28:24;;;;;;;7.20;1.70;;;15.40;88.10;;;;;;5093213;28;20556;-73
2022/10/25 02:30:52;;;;;;;3.17;1.38;;;15.40;88.10;;;;;;5075645;28;20025;-73
2022/10/25 02:33:17;;;;;;;4.57;1.50;;;15.40;88.00;;;;;;5093230;28;20032;-73
2022/10/25 02:35:43;;;;;;;6.88;1.50;;;15.40;88.10;;;;;;5093203;28;20107;-73
2022/10/25 02:38:09;;;;;;;6.22;1.60;;;15.40;88.30;;;;;;5075313;28;20117;-73
2022/10/25 02:40:35;;;;;;;8.38;1.92;;;15.40;88.10;;;;;;5093162;28;20029;-73
2022/10/25 02:43:01;;;;;;;5.75;1.30;;;15.40;87.90;;;;;;5075387;28;20063;-73
2022/10/25 02:45:26;;;;;;;3.60;1.13;;;15.50;87.80;;;;;;5093116;28;20025;-73
2022/10/25 02:47:52;;;;;;;5.47;1.48;;;15.50;87.70;;;;;;5093083;28;20032;-73
2022/10/25 02:50:18;;;;;;;7.15;1.17;;;15.40;87.90;;;;;;5075284;28;20025;-73
2022/10/25 02:52:43;;;;;;;7.35;1.10;;;15.30;88.10;;;;;;5075199;28;20047;-74
2022/10/25 02:55:09;;;;;;;5.55;1.10;;;15.30;88.20;;;;;;5058658;28;20037;-73
2022/10/25 02:57:36;;;;;;;5.28;1.27;;;15.30;89.20;;;;;;5075283;28;20040;-73
2022/10/25 03:00:06;;;;;;;4.97;1.40;;;15.20;88.40;;;;;;5092961;28;20029;-73
2022/10/25 03:02:32;;;;;;;9.85;1.55;;;15.30;88.30;;;;;;5092848;28;20082;-73
2022/10/25 03:04:57;;;;;;;8.25;1.60;;;15.40;88.20;;;;;;5092916;28;20017;-73
2022/10/25 03:07:24;;;;;;;4.13;1.20;;;15.30;88.10;;;;;;5075173;28;20032;-73
2022/10/25 03:09:50;;;;;;;5.35;1.40;;;15.40;88.00;;;;;;5092888;28;20055;-73
2022/10/25 03:12:15;;;;;;;6.55;1.40;;;15.30;87.90;;;;;;5075033;28;20028;-73
2022/10/25 03:14:41;;;;;;;4.60;1.40;;;15.30;87.90;;;;;;5092816;28;20039;-73
2022/10/25 03:17:07;;;;;;;4.88;1.70;;;15.20;87.90;;;;;;5041877;28;20025;-73
2022/10/25 03:19:32;;;;;;;7.50;1.90;;;15.30;88.10;;;;;;5075081;28;20096;-73
2022/10/25 03:21:58;;;;;;;3.90;1.65;;;15.20;88.10;;;;;;5092755;28;20040;-73
2022/10/25 03:24:23;;;;;;;3.88;1.60;;;15.20;88.10;;;;;;5092771;28;20039;-73
2022/10/25 03:26:49;;;;;;;9.43;2.17;;;15.20;88.20;;;;;;5092678;28;20055;-73
2022/10/25 03:29:15;;;;;;;8.13;2.00;;;15.20;88.00;;;;;;5075111;28;20021;-73
2022/10/25 03:31:40;;;;;;;4.90;1.58;;;15.20;87.90;;;;;;5092575;28;20013;-73
2022/10/25 03:34:06;;;;;;;5.68;1.92;;;15.10;88.00;;;;;;5074950;28;20033;-74
2022/10/25 03:36:32;;;;;;;6.68;1.60;;;15.10;88.00;;;;;;5092620;28;20043;-72
2022/10/25 03:38:57;;;;;;;9.43;1.90;;;15.00;88.10;;;;;;5076339;28;20028;-73
2022/10/25 03:41:23;;;;;;;4.95;1.35;;;15.00;88.30;;;;;;5078473;28;20033;-73
2022/10/25 03:43:49;;;;;;;8.65;1.45;;;15.00;88.30;;;;;;5078612;28;20033;-73
2022/10/25 03:46:14;;;;;;;5.55;1.40;;;15.00;88.30;;;;;;5078434;28;20084;-73
2022/10/25 03:48:40;;;;;;;7.25;1.83;;;14.90;88.40;;;;;;5096027;28;20060;-73
2022/10/25 03:51:05;;;;;;;5.60;1.42;;;14.90;88.40;;;;;;5095990;28;20021;-73
2022/10/25 03:53:32;;;;;;;5.15;1.52;;;14.90;88.50;;;;;;5095744;28;20060;-73
2022/10/25 03:55:57;;;;;;;5.47;1.42;;;14.90;88.60;;;;;;5078447;28;20031;-73
2022/10/25 03:58:23;;;;;;;5.85;2.03;;;14.80;88.60;;;;;;5095836;28;20033;-73
2022/10/25 04:00:49;;;;;;;6.50;1.55;;;14.80;88.40;;;;;;5095792;28;20035;-73
2022/10/25 04:03:14;;;;;;;10.43;1.58;;;14.80;88.60;;;;;;5095683;28;20097;-73
2022/10/25 04:05:40;;;;;;;6.47;1.40;;;14.80;88.40;;;;;;5095734;28;20025;-73
2022/10/25 04:08:06;;;;;;;6.07;1.90;;;14.80;89.30;;;;;;5077977;28;20021;-73
2022/10/25 04:10:31;;;;;;;5.07;1.70;;;14.70;88.50;;;;;;5078027;28;20522;-73
2022/10/25 04:12:57;;;;;;;5.40;1.80;;;14.70;88.50;;;;;;5095555;28;20028;-73
2022/10/25 04:15:23;;;;;;;9.48;2.58;;;14.80;88.30;;;;;;5077822;28;20024;-73
2022/10/25 04:17:50;;;;;;;4.43;1.63;;;14.70;88.40;;;;;;5095421;28;20082;-73
2022/10/25 04:20:16;;;;;;;3.63;1.73;;;14.70;88.60;;;;;;5061241;28;20066;-72
2022/10/25 04:22:41;;;;;;;6.68;1.58;;;14.70;88.50;;;;;;5095345;28;20051;-73
2022/10/25 04:25:07;;;;;;;4.45;1.60;;;14.60;88.30;;;;;;5095354;28;20033;-73
2022/10/25 04:27:33;;;;;;;9.63;1.80;;;14.60;88.80;;;;;;5077461;28;20025;-73
2022/10/25 04:29:58;;;;;;;4.38;1.52;;;14.50;88.70;;;;;;5095271;28;20051;-73
2022/10/25 04:32:24;;;;;;;3.35;1.90;;;14.50;88.90;;;;;;5077583;28;20039;-73
2022/10/25 04:34:50;;;;;;;6.47;1.52;;;14.50;89.00;;;;;;5077590;28;20088;-73
2022/10/25 04:37:15;;;;;;;6.68;2.00;;;14.50;89.10;;;;;;5077541;28;20051;-73
2022/10/25 04:39:41;;;;;;;6.00;1.75;;;14.50;88.90;;;;;;5094994;28;20017;-73
2022/10/25 04:42:07;;;;;;;5.10;1.75;;;14.50;88.80;;;;;;5095019;28;20475;-73
2022/10/25 04:44:32;;;;;;;5.07;1.80;;;14.50;88.90;;;;;;5077304;28;20045;-73
2022/10/25 04:46:58;;;;;;;6.53;2.00;;;14.50;89.10;;;;;;5094913;28;20024;-73
2022/10/25 04:49:23;;;;;;;8.13;2.15;;;14.50;89.20;;;;;;5094435;28;20028;-72
2022/10/25 04:51:49;;;;;;;4.38;1.42;;;14.40;89.30;;;;;;5094801;28;20032;-73
2022/10/25 04:54:15;;;;;;;3.13;1.55;;;14.40;89.20;;;;;;5094577;28;20057;-73
2022/10/25 04:56:40;;;;;;;7.10;1.80;;;14.40;89.30;;;;;;5094703;28;20063;-73
2022/10/25 04:59:07;;;;;;;6.88;2.03;;;14.40;89.20;;;;;;5094646;28;20032;-73
2022/10/25 05:01:33;;;;;;;6.30;1.92;;;14.40;89.10;;;;;;5077183;28;20040;-73
2022/10/25 05:03:58;;;;;;;6.57;1.98;;;14.40;89.00;;;;;;5094484;28;20033;-73
2022/10/25 05:06:26;;;;;;;8.30;2.13;;;14.40;89.00;;;;;;5076870;28;20033;-73
2022/10/25 05:08:52;;;;;;;4.25;1.63;;;14.40;89.00;;;;;;5094377;28;20023;-72
2022/10/25 05:11:21;;;;;;;5.22;2.00;;;14.40;90.00;;;;;;5076778;28;20075;-73
2022/10/25 05:13:47;;;;;;;4.60;1.85;;;14.40;88.90;;;;;;5094395;28;20025;-73
2022/10/25 05:16:22;;;;;;;5.45;1.83;;;14.40;89.10;;;;;;5059891;28;20035;-73
2022/10/25 05:18:49;;;;;;;7.90;1.80;;;14.40;89.20;;;;;;5076634;28;20047;-73
2022/10/25 05:21:16;;;;;;;7.85;1.85;;;14.30;89.40;;;;;;5076584;28;20505;-73
2022/10/25 05:23:42;;;;;;;4.50;2.17;;;14.30;89.50;;;;;;5094012;28;20028;-73
2022/10/25 05:26:19;;;;;;;5.28;1.90;;;14.30;89.50;;;;;;5076629;28;20085;-73
2022/10/25 05:28:47;;;;;;;6.28;2.33;;;14.30;89.60;;;;;;5094029;28;20051;-73
2022/10/25 05:31:19;;;;;;;6.32;1.90;;;14.30;89.80;;;;;;5094041;28;20024;-73
2022/10/25 05:33:47;;;;;;;12.02;2.13;;;14.30;89.70;;;;;;5094052;28;20149;-73
2022/10/25 05:36:13;;;;;;;4.72;1.70;;;14.30;89.60;;;;;;5076317;28;20096;-73
2022/10/25 05:38:39;;;;;;;6.25;2.05;;;14.30;89.50;;;;;;5093804;28;20029;-73
2022/10/25 05:41:06;;;;;;;4.70;1.98;;;14.40;89.50;;;;;;5076318;28;20031;-73
2022/10/25 05:43:31;;;;;;;3.63;2.13;;;14.30;89.30;;;;;;5076011;28;20028;-73
2022/10/25 05:46:21;;;;;;;8.35;2.25;;;14.30;89.40;;;;;;5093761;28;20021;-73
2022/10/25 05:48:47;;;;;;;4.20;2.20;;;14.30;89.50;;;;;;5068785;28;20047;-73
2022/10/25 05:51:14;;;;;;;5.05;1.95;;;14.30;89.40;;;;;;5093702;28;20024;-73
2022/10/25 05:53:49;;;;;;;4.57;1.83;;;14.30;89.40;;;;;;5093526;28;20048;-73
2022/10/25 05:56:15;;;;;;;5.80;2.10;;;14.40;89.50;;;;;;5093560;28;20036;-73
2022/10/25 05:58:41;;;;;;;5.75;2.33;;;14.40;89.30;;;;;;5093527;28;20020;-73
2022/10/25 06:01:09;;;;;;;4.40;2.30;;;14.30;89.20;;;;;;5075026;28;20063;-74
2022/10/25 06:03:35;;;;;;;5.82;2.47;;;14.30;89.40;;;;;;5075752;28;20028;-73
2022/10/25 06:06:02;;;;;;;7.90;2.40;;;14.30;89.50;;;;;;5093489;28;20514;-73
2022/10/25 06:08:29;;;;;;;4.35;1.77;;;14.30;89.60;;;;;;5075812;28;20017;-72
2022/10/25 06:10:54;;;;;;;5.45;2.35;;;14.30;89.50;;;;;;5093449;28;20023;-73
2022/10/25 06:13:20;;;;;;;4.88;1.77;;;14.30;89.30;;;;;;5075756;28;20024;-73
2022/10/25 06:15:45;;;;;;;6.00;1.63;;;14.30;89.00;;;;;;5093397;28;20395;-73
2022/10/25 06:18:11;;;;;;;3.55;1.75;;;14.40;89.00;;;;;;5093374;28;20111;-73
2022/10/25 06:20:37;;;;;;;4.60;1.92;;;14.40;89.10;;;;;;5093360;28;20050;-73
2022/10/25 06:23:02;;;;;;;4.97;1.70;;;14.40;89.20;;;;;;5075679;28;20032;-73
2022/10/25 06:25:28;;;;;;;7.07;1.98;;;14.40;89.10;;;;;;5093369;28;20353;-73
2022/10/25 06:27:53;;;;;;;2.92;1.67;;;14.30;89.10;;;;;;5075641;28;20052;-73
2022/10/25 06:30:19;;;;;;;6.47;1.88;;;14.30;89.60;;;;;;5058862;28;20028;-73
2022/10/25 06:32:44;;;;;;;5.95;2.03;;;14.30;90.00;;;;;;5093213;28;20111;-72
2022/10/25 06:35:10;;;;;;;2.85;1.65;;;14.30;90.00;;;;;;5093198;28;20029;-73
2022/10/25 06:37:36;;;;;;;6.72;2.15;;;14.30;90.10;;;;;;5075484;28;20055;-74
2022/10/25 06:40:01;;;;;;;5.20;1.77;;;14.30;90.20;;;;;;5075415;28;20025;-73
2022/10/25 06:42:27;;;;;;;7.07;2.20;;;14.30;90.20;;;;;;5075368;28;20033;-74
2022/10/25 06:44:52;;;;;;;3.65;1.90;;;14.30;90.20;;;;;;5075362;28;20025;-74
2022/10/25 06:47:19;;;;;;;4.03;1.95;;;14.30;90.20;;;;;;5093085;28;20025;-74
2022/10/25 06:49:45;;;;;;;5.13;2.05;;;14.40;90.20;;;;;;5075539;28;20035;-74
2022/10/25 06:52:10;;;;;;;7.72;2.40;;;14.30;90.10;;;;;;5075224;28;20096;-74
2022/10/25 06:54:36;;;;;;;5.95;2.10;;;14.30;90.00;;;;;;5075281;28;20057;-74
2022/10/25 06:57:01;;;;;;;4.95;2.20;;;14.30;90.00;;;;;;5057661;28;20037;-74
2022/10/25 06:59:27;;;;;;;6.55;2.40;;;14.30;90.10;;;;;;5091689;28;20021;-74
2022/10/25 07:01:53;;;;;;;8.48;2.17;;;14.40;90.00;;;;;;5091787;28;20493;-73
2022/10/25 07:04:19;;;;;;;6.45;2.55;;;14.40;90.00;;;;;;5074340;28;20044;-74
2022/10/25 07:06:45;;;;;;;9.13;2.65;;;14.40;89.90;;;;;;5092895;28;20063;-73
2022/10/25 07:09:12;;;;;;;6.50;2.75;;;14.30;90.00;;;;;;5093027;28;20020;-73
2022/10/25 07:11:38;;;;;;;6.45;2.53;;;14.30;90.00;;;;;;5058666;28;20021;-74
2022/10/25 07:14:04;;;;;;;5.10;2.60;;;14.30;90.00;;;;;;5078450;28;20039;-74
2022/10/25 07:16:29;;;;;;;9.98;2.80;;;14.40;90.00;;;;;;5096615;28;20028;-74
2022/10/25 07:19:03;;;;;;;5.63;2.67;;;14.30;90.00;;;;;;5078937;28;20040;-74
2022/10/25 07:21:30;;;;;;;9.30;2.70;;;14.40;90.00;;;;;;5078975;28;20025;-74
2022/10/25 07:23:56;;;;;;;8.10;3.20;;;14.30;90.00;;;;;;5096351;28;20029;-74
2022/10/25 07:26:25;;;;;;;9.00;3.30;;;14.30;90.00;;;;;;5096519;28;20025;-73
2022/10/25 07:28:53;;;;;;;7.50;3.22;;;14.30;90.20;;;;;;5096359;28;20032;-74
2022/10/25 07:31:39;;;;;;;9.45;3.30;;;14.40;90.20;;;;;;5078633;28;20033;-74
2022/10/25 07:34:05;;;;;;;5.97;3.13;;;14.40;90.20;;;;;;5096226;28;20035;-73
2022/10/25 07:36:31;;;;;;;10.13;3.45;;;14.40;90.30;;;;;;5096232;28;20029;-74
2022/10/25 07:38:57;;;;;;;8.60;3.67;;;14.40;90.70;;;;;;5061848;28;20025;-74
2022/10/25 07:41:24;;;;;;;5.70;2.92;;;14.40;90.30;;;;;;5078567;28;20092;-74
2022/10/25 07:43:49;;;;;;;15.60;3.78;;;14.50;90.30;;;;;;5096101;28;20094;-74
2022/10/25 07:46:15;;;;;;;11.35;3.67;;;14.40;90.20;;;;;;5078370;28;20092;-74
2022/10/25 07:48:40;;;;;;;7.82;2.97;;;14.50;90.20;;;;;;5096061;28;20505;-74
2022/10/25 07:51:09;;;;;;;10.85;3.80;;;14.50;90.20;;;;;;5061557;28;20036;-74
2022/10/25 07:53:35;;;;;;;10.85;3.75;;;14.50;90.30;;;;;;5095691;28;20040;-74
2022/10/25 07:56:01;;;;;;;8.25;4.03;;;14.50;90.20;;;;;;5078326;28;20040;-74
2022/10/25 07:58:27;;;;;;;8.10;3.35;;;14.50;90.10;;;;;;5078191;28;20046;-74
2022/10/25 08:01:02;;;;;;;11.65;4.30;;;14.50;90.10;;;;;;5095784;28;20029;-74
2022/10/25 08:03:28;;;;;;;11.90;4.18;;;14.50;90.10;;;;;;5095737;28;20024;-74
2022/10/25 08:05:54;;;;;;;11.00;3.75;;;14.60;90.00;;;;;;5095823;28;20025;-74
2022/10/25 08:08:22;;;;;;;10.55;3.80;;;14.70;90.00;;;;;;5095674;28;20028;-74
2022/10/25 08:10:48;;;;;;;10.20;3.80;;;14.80;90.00;;;;;;5078302;28;20052;-74
2022/10/25 08:13:14;;;;;;;11.20;3.90;;;14.80;90.00;;;;;;5095554;28;20077;-74
2022/10/25 08:15:39;;;;;;;13.45;3.67;;;14.80;90.00;;;;;;5077981;28;20032;-74
2022/10/25 08:18:06;;;;;;;12.18;4.32;;;14.90;89.80;;;;;;5077682;28;20032;-74
2022/10/25 08:20:32;;;;;;;7.30;3.83;;;14.90;89.20;;;;;;5095473;28;20048;-74
2022/10/25 08:22:58;;;;;;;9.10;4.13;;;14.90;89.30;;;;;;5077655;28;20028;-74
2022/10/25 08:25:25;;;;;;;8.88;4.07;;;15.00;89.40;;;;;;5094522;28;20021;-74
2022/10/25 08:27:51;;;;;;;9.85;4.28;;;15.00;89.10;;;;;;5095269;28;20027;-74
2022/10/25 08:30:16;;;;;;;6.55;3.95;;;15.00;89.10;;;;;;5095280;28;20048;-74
2022/10/25 08:32:42;;;;;;;10.63;3.85;;;15.10;89.30;;;;;;5061115;28;20029;-74
2022/10/25 08:35:08;;;;;;;8.18;3.42;;;15.10;89.10;;;;;;5095183;28;20029;-74
2022/10/25 08:37:33;;;;;;;8.10;3.92;;;15.10;88.90;;;;;;5095046;28;20051;-74
2022/10/25 08:39:59;;;;;;;9.35;3.65;;;15.10;88.90;;;;;;5077563;28;20040;-74
2022/10/25 08:42:43;;;;;;;7.25;3.50;;;15.10;88.90;;;;;;5095187;28;20031;-74
2022/10/25 08:45:34;;;;;;;13.45;4.43;;;15.20;89.00;;;;;;5094972;28;20033;-74
2022/10/25 08:48:01;;;;;;;7.32;3.60;;;15.20;88.00;;;;;;5094944;28;20048;-74
2022/10/25 08:50:49;;;;;;;7.70;3.00;;;15.30;88.40;;;;;;5094890;28;20020;-74
2022/10/25 08:53:26;;;;;;;8.90;3.22;;;15.30;87.90;;;;;;5094621;28;20059;-73
2022/10/25 08:55:53;;;;;;;12.63;3.75;;;15.30;87.50;;;;;;5094630;28;20025;-74
2022/10/25 08:58:35;;;;;;;6.70;3.67;;;15.30;87.80;;;;;;5077115;28;20033;-74
2022/10/25 09:01:09;;;;;;;11.65;3.47;;;15.30;88.20;;;;;;5094710;28;20041;-74
2022/10/25 09:03:35;;;;;;;7.90;2.88;;;15.20;87.90;;;;;;5094603;28;20080;-74
2022/10/25 09:06:03;;;;;;;8.43;3.35;;;15.30;88.10;;;;;;5076855;28;20021;-74
2022/10/25 09:08:57;;;;;;;12.15;3.85;;;15.30;88.10;;;;;;5076852;28;20048;-74
2022/10/25 09:11:46;;;;;;;6.63;3.28;;;15.40;87.70;;;;;;5076826;28;20095;-74
2022/10/25 09:14:22;;;;;;;9.95;3.58;;;15.40;87.50;;;;;;5076975;28;20025;-74
2022/10/25 09:16:52;;;;;;;10.35;3.58;;;15.40;87.40;;;;;;5094388;28;20429;-74
2022/10/25 09:19:34;;;;;;;10.27;3.58;;;15.30;87.70;;;;;;5076614;28;20029;-74
2022/10/25 09:22:07;;;;;;;10.73;3.83;;;15.30;87.20;;;;;;5094258;28;20032;-74
2022/10/25 09:24:51;;;;;;;9.88;4.00;;;15.30;87.60;;;;;;5093144;28;20025;-74
2022/10/25 09:27:43;;;;;;;9.30;3.88;;;15.30;87.40;;;;;;5092309;28;20028;-74
2022/10/25 09:30:11;;;;;;;9.10;3.90;;;15.30;88.10;;;;;;5092158;28;20031;-74
2022/10/25 09:32:41;;;;;;;10.93;3.58;;;15.30;88.70;;;;;;5092161;28;20038;-74
2022/10/25 09:35:26;;;;;;;8.07;3.40;;;15.40;88.30;;;;;;5092155;28;20087;-74
2022/10/25 09:37:57;;;;;;;8.90;3.65;;;15.50;88.00;;;;;;5075013;28;20030;-74
2022/10/25 09:40:30;;;;;;;7.07;3.00;;;15.60;86.90;;;;;;5074173;28;20036;-74
2022/10/25 09:43:01;;;;;;;11.80;3.25;;;15.70;86.80;;;;;;5074007;28;20122;-74
2022/10/25 09:45:32;;;;;;;7.10;3.53;;;15.70;86.70;;;;;;5074042;28;20017;-75
2022/10/25 09:48:24;;;;;;;4.75;2.72;;;15.70;85.20;;;;;;5091680;28;20028;-74
2022/10/25 09:51:20;;;;;;;9.32;3.13;;;15.70;85.10;;;;;;5074807;28;20035;-74
2022/10/25 09:53:46;;;;;;;7.57;3.40;;;15.70;85.40;;;;;;5073762;28;20047;-74
2022/10/25 09:56:12;;;;;;;7.88;3.15;;;15.80;85.00;;;;;;5058857;28;20113;-74
2022/10/25 09:58:40;;;;;;;8.10;3.60;;;15.80;85.30;;;;;;5074347;28;20032;-74
2022/10/25 10:01:20;;;;;;;7.00;2.78;;;15.90;85.50;;;;;;5091353;28;20047;-74
2022/10/25 10:03:46;;;;;;;8.13;2.88;;;15.90;84.80;;;;;;5091790;28;20028;-74
2022/10/25 10:06:24;;;;;;;8.65;2.92;;;15.90;85.00;;;;;;5091206;28;20063;-74
2022/10/25 10:09:10;;;;;;;10.20;3.13;;;15.80;84.70;;;;;;5092154;28;20021;-74
2022/10/25 10:11:37;;;;;;;9.90;2.97;;;15.80;84.30;;;;;;5092584;28;20021;-77
2022/10/25 10:14:30;;;;;;;9.32;3.13;;;15.80;84.90;;;;;;5074490;28;20088;-78
2022/10/25 10:16:57;;;;;;;7.75;2.90;;;15.70;85.20;;;;;;5092299;28;20116;-78
2022/10/25 10:19:25;;;;;;;9.88;2.90;;;15.70;84.80;;;;;;5091546;28;20035;-79
2022/10/25 10:22:01;;;;;;;9.68;2.60;;;15.80;85.20;;;;;;5091820;28;20028;-78
2022/10/25 10:24:33;;;;;;;7.50;2.67;;;15.90;84.50;;;;;;5091399;28;20032;-78
2022/10/25 10:27:01;;;;;;;5.75;2.20;;;15.90;84.60;;;;;;5091854;28;20074;-78
2022/10/25 10:29:29;;;;;;;7.35;2.90;;;16.00;85.00;;;;;;5073841;28;20048;-78
2022/10/25 10:31:58;;;;;;;7.85;2.45;;;16.10;84.40;;;;;;5092433;28;20399;-78
2022/10/25 10:34:49;;;;;;;7.55;2.70;;;16.10;84.10;;;;;;5074862;28;20028;-79
2022/10/25 10:37:23;;;;;;;7.65;2.50;;;16.10;84.90;;;;;;5091633;28;20123;-78
2022/10/25 10:40:20;;;;;;;7.32;2.00;;;16.10;84.50;;;;;;5073681;28;20090;-78
2022/10/25 10:42:48;;;;;;;9.20;2.70;;;16.10;84.40;;;;;;5091632;28;20025;-78
2022/10/25 10:45:18;;;;;;;5.50;2.30;;;16.10;84.40;;;;;;5091198;28;20115;-78
2022/10/25 10:47:50;;;;;;;10.02;2.65;;;16.10;84.10;;;;;;5075088;28;20441;-78
2022/10/25 10:50:23;;;;;;;8.15;2.67;;;16.10;83.50;;;;;;5095979;28;20076;-78
2022/10/25 10:52:57;;;;;;;8.40;2.67;;;16.20;83.40;;;;;;5095910;28;20013;-78
2022/10/25 10:55:53;;;;;;;6.22;2.25;;;16.20;83.20;;;;;;5096370;28;20148;-78
2022/10/25 10:58:26;;;;;;;5.78;2.20;;;16.20;83.70;;;;;;5095620;28;20028;-78
2022/10/25 11:00:56;;;;;;;5.18;2.42;;;16.20;83.30;;;;;;5095376;28;20021;-78
2022/10/25 11:03:35;;;;;;;7.72;2.20;;;16.20;83.80;;;;;;5077126;28;20012;-78
2022/10/25 11:06:01;;;;;;;4.28;2.17;;;16.20;83.20;;;;;;5095679;28;20033;-78
2022/10/25 11:08:26;;;;;;;8.88;2.25;;;16.30;83.40;;;;;;5095163;28;20029;-78
2022/10/25 11:11:30;;;;;;;9.13;2.35;;;16.30;83.50;;;;;;5095952;28;20028;-78
2022/10/25 11:13:57;;;;;;;7.43;2.33;;;16.30;83.70;;;;;;5095865;28;20040;-78
2022/10/25 11:16:56;;;;;;;7.82;2.30;;;16.20;83.10;;;;;;5095143;28;20027;-78
2022/10/25 11:19:45;;;;;;;7.20;2.45;;;16.20;83.00;;;;;;5094984;28;20118;-78
2022/10/25 11:22:19;;;;;;;6.30;2.03;;;16.20;83.20;;;;;;5095242;28;20025;-78
2022/10/25 11:25:11;;;;;;;5.55;2.22;;;16.20;83.20;;;;;;5094455;28;20107;-78
2022/10/25 11:27:44;;;;;;;6.28;2.45;;;16.30;83.30;;;;;;5091986;28;20033;-78
2022/10/25 11:30:17;;;;;;;5.20;2.10;;;16.40;82.80;;;;;;5077418;28;20454;-77
2022/10/25 11:33:09;;;;;;;5.55;1.88;;;16.50;82.50;;;;;;5095201;28;20017;-78
2022/10/25 11:35:47;;;;;;;5.65;2.30;;;16.50;82.30;;;;;;5077566;28;20028;-78
2022/10/25 11:38:19;;;;;;;4.97;2.08;;;16.50;81.90;;;;;;5094196;28;20047;-78
2022/10/25 11:40:55;;;;;;;4.75;1.90;;;16.50;82.80;;;;;;5076507;28;20040;-76
2022/10/25 11:43:33;;;;;;;4.05;1.98;;;16.50;81.50;;;;;;5094533;28;20017;-74
2022/10/25 11:46:10;;;;;;;7.15;2.30;;;16.50;82.20;;;;;;5094249;28;20024;-74
2022/10/25 11:49:14;;;;;;;6.82;2.20;;;16.50;82.20;;;;;;5094300;28;20099;-74
2022/10/25 11:52:07;;;;;;;8.38;2.38;;;16.50;81.60;;;;;;5059992;28;20033;-74
2022/10/25 11:54:48;;;;;;;4.25;2.00;;;16.60;82.10;;;;;;5076306;28;20513;-74
2022/10/25 11:57:26;;;;;;;6.47;2.53;;;16.60;82.30;;;;;;5094810;28;20035;-77
2022/10/25 12:00:15;;;;;;;9.23;2.28;;;16.70;81.70;;;;;;5092064;28;20032;-77
2022/10/25 12:03:06;;;;;;;7.82;2.60;;;16.80;82.30;;;;;;5093577;28;20088;-78
2022/10/25 12:06:00;;;;;;;10.55;2.88;;;16.80;81.50;;;;;;5094474;28;20020;-78
2022/10/25 12:08:32;;;;;;;4.95;2.00;;;16.90;82.00;;;;;;5094046;28;20020;-78
2022/10/25 12:19:52;;;;;;;4.47;2.22;;;17.00;81.50;;;;;;5059381;28;20025;-79
2022/10/25 12:22:27;;;;;;;7.00;2.20;;;17.00;80.90;;;;;;5093392;28;20021;-78
2022/10/25 12:25:05;;;;;;;7.03;2.70;;;17.00;80.10;;;;;;5093528;28;20054;-78
2022/10/25 12:27:32;;;;;;;7.15;3.08;;;17.00;80.60;;;;;;5075815;28;20028;-79
2022/10/25 12:30:05;;;;;;;8.35;3.45;;;17.00;80.50;;;;;;5094338;28;20470;-79
2022/10/25 12:32:45;;;;;;;5.72;2.40;;;16.90;80.60;;;;;;5094769;28;20027;-78
2022/10/25 12:35:35;;;;;;;11.93;2.78;;;16.90;80.20;;;;;;5075379;28;20036;-79
2022/10/25 12:38:07;;;;;;;4.32;2.20;;;16.90;80.60;;;;;;5075193;28;20028;-78
2022/10/25 12:40:40;;;;;;;4.88;2.65;;;16.90;80.30;;;;;;5093430;28;20041;-79
2022/10/25 12:43:30;;;;;;;7.07;2.08;;;17.00;80.50;;;;;;5074911;28;20025;-79
2022/10/25 12:46:15;;;;;;;6.20;2.30;;;17.00;79.80;;;;;;5085478;28;20037;-79
2022/10/25 12:48:44;;;;;;;4.50;2.10;;;17.10;78.20;;;;;;5093674;28;20024;-78
2022/10/25 12:51:18;;;;;;;5.78;2.20;;;17.10;79.00;;;;;;5075675;28;20031;-78
2022/10/25 12:53:50;;;;;;;4.30;2.10;;;17.10;78.90;;;;;;5075393;28;20063;-78
2022/10/25 12:56:46;;;;;;;6.40;2.35;;;17.10;79.00;;;;;;5092951;28;20060;-78
2022/10/25 12:59:37;;;;;;;6.47;2.00;;;17.30;78.50;;;;;;5074891;28;20028;-79
2022/10/25 13:02:21;;;;;;;4.75;1.85;;;17.40;79.10;;;;;;5093063;28;20433;-78
2022/10/25 13:05:02;;;;;;;4.28;2.03;;;17.40;77.10;;;;;;5074880;28;20085;-78
2022/10/25 13:07:31;;;;;;;4.70;1.92;;;17.40;77.40;;;;;;5075434;28;20024;-79
2022/10/25 13:10:05;;;;;;;4.50;1.90;;;17.40;77.10;;;;;;5092755;28;20017;-78
2022/10/25 13:12:32;;;;;;;3.90;1.77;;;17.40;76.70;;;;;;5076137;28;20138;-79
2022/10/25 13:14:59;;;;;;;7.43;2.40;;;17.40;77.30;;;;;;5092666;28;20020;-78
2022/10/25 13:17:24;;;;;;;4.55;1.60;;;17.40;78.20;;;;;;5074155;28;20039;-78